sensor_id;sensor_type;location;lat;lon;timestamp;P1;durP1;ratioP1;P2;durP2;ratioP2
21804;SDS011;11064;47.102;15.452;2022-11-15T05:02:05;101.03;;;45.63;;
21804;SDS011;11064;47.102;15.452;2022-11-15T05:04:31;169.18;;;48.58;;
21804;SDS011;11064;47.102;15.452;2022-11-15T05:06:57;172.10;;;48.38;;
21804;SDS011;11064;47.102;15.452;2022-11-15T05:09:23;253.63;;;51.97;;
21804;SDS011;11064;47.102;15.452;2022-11-15T05:11:48;97.30;;;46.42;;
21804;SDS011;11064;47.102;15.452;2022-11-15T05:14:14;220.98;;;50.17;;
21804;SDS011;11064;47.102;15.452;2022-11-15T05:16:41;841.45;;;70.68;;
21804;SDS011;11064;47.102;15.452;2022-11-15T05:19:08;449.80;;;54.22;;
21804;SDS011;11064;47.102;15.452;2022-11-15T05:21:34;504.48;;;60.13;;
21804;SDS011;11064;47.102;15.452;2022-11-15T05:24:00;87.63;;;44.55;;
21804;SDS011;11064;47.102;15.452;2022-11-15T05:26:27;234.63;;;49.70;;
21804;SDS011;11064;47.102;15.452;2022-11-15T05:28:56;136.75;;;47.85;;
21804;SDS011;11064;47.102;15.452;2022-11-15T05:31:24;197.32;;;49.47;;
21804;SDS011;11064;47.102;15.452;2022-11-15T05:33:51;289.63;;;52.92;;
21804;SDS011;11064;47.102;15.452;2022-11-15T05:36:20;162.32;;;47.53;;
21804;SDS011;11064;47.102;15.452;2022-11-15T05:38:47;288.77;;;56.10;;
21804;SDS011;11064;47.102;15.452;2022-11-15T05:41:15;222.57;;;47.10;;
21804;SDS011;11064;47.102;15.452;2022-11-15T05:43:44;270.75;;;50.72;;
21804;SDS011;11064;47.102;15.452;2022-11-15T05:46:12;102.75;;;43.03;;
21804;SDS011;11064;47.102;15.452;2022-11-15T05:48:40;83.38;;;43.90;;
21804;SDS011;11064;47.102;15.452;2022-11-15T05:51:09;93.93;;;45.80;;
21804;SDS011;11064;47.102;15.452;2022-11-15T05:53:39;126.72;;;46.92;;
21804;SDS011;11064;47.102;15.452;2022-11-15T05:56:05;138.63;;;47.35;;
21804;SDS011;11064;47.102;15.452;2022-11-15T05:58:32;212.13;;;47.88;;
21804;SDS011;11064;47.102;15.452;2022-11-15T06:00:58;131.88;;;44.72;;
21804;SDS011;11064;47.102;15.452;2022-11-15T06:03:24;159.85;;;45.38;;
21804;SDS011;11064;47.102;15.452;2022-11-15T06:05:50;186.38;;;46.83;;
21804;SDS011;11064;47.102;15.452;2022-11-15T06:08:16;105.55;;;42.75;;
21804;SDS011;11064;47.102;15.452;2022-11-15T06:10:41;130.95;;;45.15;;
21804;SDS011;11064;47.102;15.452;2022-11-15T06:13:07;186.15;;;47.33;;
21804;SDS011;11064;47.102;15.452;2022-11-15T06:15:33;267.00;;;49.88;;
21804;SDS011;11064;47.102;15.452;2022-11-15T06:17:59;112.93;;;43.85;;
21804;SDS011;11064;47.102;15.452;2022-11-15T06:20:26;122.68;;;45.10;;
21804;SDS011;11064;47.102;15.452;2022-11-15T06:23:00;159.43;;;45.67;;
21804;SDS011;11064;47.102;15.452;2022-11-15T06:25:28;574.42;;;58.50;;
21804;SDS011;11064;47.102;15.452;2022-11-15T06:27:55;515.40;;;54.47;;
21804;SDS011;11064;47.102;15.452;2022-11-15T06:30:22;497.45;;;58.20;;
21804;SDS011;11064;47.102;15.452;2022-11-15T06:32:49;177.40;;;43.33;;
21804;SDS011;11064;47.102;15.452;2022-11-15T06:35:16;138.40;;;45.17;;
21804;SDS011;11064;47.102;15.452;2022-11-15T06:37:42;260.52;;;47.00;;
21804;SDS011;11064;47.102;15.452;2022-11-15T06:40:08;439.27;;;54.15;;
21804;SDS011;11064;47.102;15.452;2022-11-15T06:42:35;230.07;;;44.92;;
21804;SDS011;11064;47.102;15.452;2022-11-15T06:45:01;819.15;;;66.25;;
21804;SDS011;11064;47.102;15.452;2022-11-15T06:47:27;141.40;;;48.20;;
21804;SDS011;11064;47.102;15.452;2022-11-15T06:49:53;205.95;;;48.08;;
21804;SDS011;11064;47.102;15.452;2022-11-15T06:52:19;246.13;;;51.05;;
21804;SDS011;11064;47.102;15.452;2022-11-15T06:54:44;116.65;;;49.13;;
21804;SDS011;11064;47.102;15.452;2022-11-15T06:57:10;144.95;;;51.55;;
21804;SDS011;11064;47.102;15.452;2022-11-15T06:59:36;329.08;;;51.70;;
21804;SDS011;11064;47.102;15.452;2022-11-15T07:02:03;619.55;;;63.33;;
21804;SDS011;11064;47.102;15.452;2022-11-15T07:04:28;651.55;;;62.88;;
21804;SDS011;11064;47.102;15.452;2022-11-15T07:06:54;395.48;;;53.28;;
21804;SDS011;11064;47.102;15.452;2022-11-15T07:09:20;664.40;;;63.53;;
21804;SDS011;11064;47.102;15.452;2022-11-15T07:11:46;399.52;;;55.13;;
21804;SDS011;11064;47.102;15.452;2022-11-15T07:14:12;342.80;;;52.55;;
21804;SDS011;11064;47.102;15.452;2022-11-15T07:16:37;480.73;;;58.38;;
21804;SDS011;11064;47.102;15.452;2022-11-15T07:19:03;261.48;;;49.33;;
21804;SDS011;11064;47.102;15.452;2022-11-15T07:21:29;444.45;;;55.47;;
21804;SDS011;11064;47.102;15.452;2022-11-15T07:23:55;234.23;;;50.45;;
21804;SDS011;11064;47.102;15.452;2022-11-15T07:26:20;249.27;;;50.50;;
21804;SDS011;11064;47.102;15.452;2022-11-15T07:28:46;521.55;;;55.33;;
21804;SDS011;11064;47.102;15.452;2022-11-15T07:31:12;105.22;;;47.08;;
21804;SDS011;11064;47.102;15.452;2022-11-15T07:33:38;330.92;;;49.40;;
21804;SDS011;11064;47.102;15.452;2022-11-15T07:36:04;403.60;;;54.47;;
21804;SDS011;11064;47.102;15.452;2022-11-15T07:38:32;540.88;;;60.67;;
21804;SDS011;11064;47.102;15.452;2022-11-15T07:40:59;601.75;;;58.40;;
21804;SDS011;11064;47.102;15.452;2022-11-15T07:43:27;884.03;;;69.70;;
21804;SDS011;11064;47.102;15.452;2022-11-15T07:45:54;1290.75;;;88.55;;
21804;SDS011;11064;47.102;15.452;2022-11-15T07:48:21;356.55;;;51.42;;
21804;SDS011;11064;47.102;15.452;2022-11-15T07:50:47;628.60;;;60.45;;
21804;SDS011;11064;47.102;15.452;2022-11-15T07:53:13;1075.20;;;73.13;;
21804;SDS011;11064;47.102;15.452;2022-11-15T07:55:39;392.85;;;46.97;;
21804;SDS011;11064;47.102;15.452;2022-11-15T07:58:10;925.67;;;69.50;;
21804;SDS011;11064;47.102;15.452;2022-11-15T08:00:36;304.58;;;44.72;;
21804;SDS011;11064;47.102;15.452;2022-11-15T08:03:10;245.15;;;44.05;;
21804;SDS011;11064;47.102;15.452;2022-11-15T08:05:38;253.70;;;43.13;;
21804;SDS011;11064;47.102;15.452;2022-11-15T08:08:05;218.90;;;42.22;;
21804;SDS011;11064;47.102;15.452;2022-11-15T08:10:32;747.47;;;58.63;;
21804;SDS011;11064;47.102;15.452;2022-11-15T08:12:59;151.95;;;38.45;;
21804;SDS011;11064;47.102;15.452;2022-11-15T08:15:26;233.57;;;42.25;;
21804;SDS011;11064;47.102;15.452;2022-11-15T08:17:53;431.02;;;46.72;;
21804;SDS011;11064;47.102;15.452;2022-11-15T08:20:23;169.55;;;42.40;;
21804;SDS011;11064;47.102;15.452;2022-11-15T08:22:49;151.27;;;41.30;;
21804;SDS011;11064;47.102;15.452;2022-11-15T08:25:15;91.20;;;38.20;;
21804;SDS011;11064;47.102;15.452;2022-11-15T08:27:41;118.10;;;37.75;;
21804;SDS011;11064;47.102;15.452;2022-11-15T08:30:07;281.80;;;41.22;;
21804;SDS011;11064;47.102;15.452;2022-11-15T08:32:33;131.95;;;40.42;;
21804;SDS011;11064;47.102;15.452;2022-11-15T08:34:59;188.85;;;39.90;;
21804;SDS011;11064;47.102;15.452;2022-11-15T08:37:24;291.10;;;41.70;;
21804;SDS011;11064;47.102;15.452;2022-11-15T08:39:50;115.80;;;38.17;;
21804;SDS011;11064;47.102;15.452;2022-11-15T08:42:16;131.82;;;36.83;;
21804;SDS011;11064;47.102;15.452;2022-11-15T08:44:42;107.97;;;36.58;;
21804;SDS011;11064;47.102;15.452;2022-11-15T08:47:09;123.35;;;38.00;;
21804;SDS011;11064;47.102;15.452;2022-11-15T08:49:37;68.22;;;34.22;;
21804;SDS011;11064;47.102;15.452;2022-11-15T08:52:03;56.53;;;31.48;;
21804;SDS011;11064;47.102;15.452;2022-11-15T08:54:29;55.80;;;31.33;;
21804;SDS011;11064;47.102;15.452;2022-11-15T08:56:54;55.17;;;30.75;;
21804;SDS011;11064;47.102;15.452;2022-11-15T08:59:20;60.63;;;31.20;;
21804;SDS011;11064;47.102;15.452;2022-11-15T09:01:46;56.88;;;30.98;;
21804;SDS011;11064;47.102;15.452;2022-11-15T09:04:12;48.05;;;28.70;;
21804;SDS011;11064;47.102;15.452;2022-11-15T09:06:38;51.28;;;28.52;;
21804;SDS011;11064;47.102;15.452;2022-11-15T09:09:04;48.08;;;27.67;;
21804;SDS011;11064;47.102;15.452;2022-11-15T09:11:29;42.22;;;25.63;;
21804;SDS011;11064;47.102;15.452;2022-11-15T09:13:55;42.38;;;24.50;;
21804;SDS011;11064;47.102;15.452;2022-11-15T09:16:21;40.35;;;24.75;;
21804;SDS011;11064;47.102;15.452;2022-11-15T09:18:47;36.20;;;23.73;;
21804;SDS011;11064;47.102;15.452;2022-11-15T09:21:13;39.03;;;24.05;;
21804;SDS011;11064;47.102;15.452;2022-11-15T09:23:39;39.63;;;24.77;;
21804;SDS011;11064;47.102;15.452;2022-11-15T09:26:05;37.35;;;23.52;;
21804;SDS011;11064;47.102;15.452;2022-11-15T09:28:31;35.13;;;22.65;;
21804;SDS011;11064;47.102;15.452;2022-11-15T09:31:02;36.92;;;23.73;;
21804;SDS011;11064;47.102;15.452;2022-11-15T09:33:29;37.05;;;23.08;;
21804;SDS011;11064;47.102;15.452;2022-11-15T09:36:29;39.90;;;24.85;;
21804;SDS011;11064;47.102;15.452;2022-11-15T09:38:48;42.85;;;25.77;;
21804;SDS011;11064;47.102;15.452;2022-11-15T09:43:47;57.50;;;31.95;;
21804;SDS011;11064;47.102;15.452;2022-11-15T09:48:51;54.67;;;31.10;;
21804;SDS011;11064;47.102;15.452;2022-11-15T09:56:47;72.35;;;36.15;;
21804;SDS011;11064;47.102;15.452;2022-11-15T10:04:41;61.10;;;34.05;;
21804;SDS011;11064;47.102;15.452;2022-11-15T10:07:14;67.47;;;35.45;;
21804;SDS011;11064;47.102;15.452;2022-11-15T10:10:02;61.88;;;33.65;;
21804;SDS011;11064;47.102;15.452;2022-11-15T10:12:37;67.03;;;36.20;;
21804;SDS011;11064;47.102;15.452;2022-11-15T10:15:10;65.65;;;35.65;;
21804;SDS011;11064;47.102;15.452;2022-11-15T10:20:24;60.03;;;34.75;;
21804;SDS011;11064;47.102;15.452;2022-11-15T10:22:59;63.45;;;35.05;;
21804;SDS011;11064;47.102;15.452;2022-11-15T10:25:30;63.20;;;35.35;;
21804;SDS011;11064;47.102;15.452;2022-11-15T10:28:22;57.53;;;33.40;;
21804;SDS011;11064;47.102;15.452;2022-11-15T10:30:48;61.67;;;34.65;;
21804;SDS011;11064;47.102;15.452;2022-11-15T10:33:34;66.47;;;36.88;;
21804;SDS011;11064;47.102;15.452;2022-11-15T10:36:21;75.47;;;38.17;;
21804;SDS011;11064;47.102;15.452;2022-11-15T10:38:51;74.63;;;39.33;;
21804;SDS011;11064;47.102;15.452;2022-11-15T10:46:41;84.82;;;41.42;;
21804;SDS011;11064;47.102;15.452;2022-11-15T10:49:15;82.45;;;40.28;;
21804;SDS011;11064;47.102;15.452;2022-11-15T10:51:48;79.45;;;41.10;;
21804;SDS011;11064;47.102;15.452;2022-11-15T10:54:21;83.75;;;41.45;;
21804;SDS011;11064;47.102;15.452;2022-11-15T10:56:51;86.22;;;42.63;;
21804;SDS011;11064;47.102;15.452;2022-11-15T10:59:24;84.95;;;41.88;;
21804;SDS011;11064;47.102;15.452;2022-11-15T11:01:52;86.13;;;41.20;;
21804;SDS011;11064;47.102;15.452;2022-11-15T11:04:18;89.90;;;42.42;;
21804;SDS011;11064;47.102;15.452;2022-11-15T11:12:01;91.65;;;42.58;;
21804;SDS011;11064;47.102;15.452;2022-11-15T11:14:32;89.75;;;42.72;;
21804;SDS011;11064;47.102;15.452;2022-11-15T11:22:32;91.53;;;39.47;;
21804;SDS011;11064;47.102;15.452;2022-11-15T11:27:55;82.38;;;40.30;;
21804;SDS011;11064;47.102;15.452;2022-11-15T11:33:16;84.03;;;39.15;;
21804;SDS011;11064;47.102;15.452;2022-11-15T11:35:50;77.43;;;36.53;;
21804;SDS011;11064;47.102;15.452;2022-11-15T11:44:04;72.88;;;35.65;;
21804;SDS011;11064;47.102;15.452;2022-11-15T11:49:15;64.45;;;34.72;;
21804;SDS011;11064;47.102;15.452;2022-11-15T11:51:50;73.13;;;35.78;;
21804;SDS011;11064;47.102;15.452;2022-11-15T11:57:22;72.20;;;34.83;;
21804;SDS011;11064;47.102;15.452;2022-11-15T12:00:01;72.65;;;35.63;;
21804;SDS011;11064;47.102;15.452;2022-11-15T12:02:38;68.47;;;36.15;;
21804;SDS011;11064;47.102;15.452;2022-11-15T12:07:41;63.60;;;32.88;;
21804;SDS011;11064;47.102;15.452;2022-11-15T12:10:15;59.55;;;30.98;;
21804;SDS011;11064;47.102;15.452;2022-11-15T12:15:19;75.90;;;37.38;;
21804;SDS011;11064;47.102;15.452;2022-11-15T12:17:58;62.03;;;33.85;;
21804;SDS011;11064;47.102;15.452;2022-11-15T12:20:28;64.53;;;33.92;;
21804;SDS011;11064;47.102;15.452;2022-11-15T12:23:11;59.67;;;32.40;;
21804;SDS011;11064;47.102;15.452;2022-11-15T12:25:48;60.42;;;32.95;;
21804;SDS011;11064;47.102;15.452;2022-11-15T12:28:41;65.10;;;33.63;;
21804;SDS011;11064;47.102;15.452;2022-11-15T12:31:22;61.10;;;32.95;;
21804;SDS011;11064;47.102;15.452;2022-11-15T12:33:55;62.90;;;31.88;;
21804;SDS011;11064;47.102;15.452;2022-11-15T12:41:20;55.95;;;31.83;;
21804;SDS011;11064;47.102;15.452;2022-11-15T12:43:56;56.67;;;29.90;;
21804;SDS011;11064;47.102;15.452;2022-11-15T12:48:57;50.40;;;29.30;;
21804;SDS011;11064;47.102;15.452;2022-11-15T13:17:50;53.25;;;29.35;;
21804;SDS011;11064;47.102;15.452;2022-11-15T13:20:20;54.50;;;28.77;;
21804;SDS011;11064;47.102;15.452;2022-11-15T13:28:39;54.60;;;30.58;;
21804;SDS011;11064;47.102;15.452;2022-11-15T13:31:34;52.38;;;29.67;;
21804;SDS011;11064;47.102;15.452;2022-11-15T13:34:22;60.58;;;30.45;;
21804;SDS011;11064;47.102;15.452;2022-11-15T13:36:55;53.45;;;29.83;;
21804;SDS011;11064;47.102;15.452;2022-11-15T13:39:28;55.63;;;30.13;;
21804;SDS011;11064;47.102;15.452;2022-11-15T13:41:57;55.95;;;30.83;;
21804;SDS011;11064;47.102;15.452;2022-11-15T13:44:24;58.58;;;31.25;;
21804;SDS011;11064;47.102;15.452;2022-11-15T13:47:03;61.20;;;31.35;;
21804;SDS011;11064;47.102;15.452;2022-11-15T13:49:39;60.97;;;31.55;;
21804;SDS011;11064;47.102;15.452;2022-11-15T13:52:06;55.22;;;30.05;;
21804;SDS011;11064;47.102;15.452;2022-11-15T13:54:59;54.53;;;29.55;;
21804;SDS011;11064;47.102;15.452;2022-11-15T13:57:26;60.40;;;30.17;;
21804;SDS011;11064;47.102;15.452;2022-11-15T14:00:04;57.15;;;30.35;;
21804;SDS011;11064;47.102;15.452;2022-11-15T14:02:47;56.53;;;30.33;;
21804;SDS011;11064;47.102;15.452;2022-11-15T14:05:20;57.05;;;29.65;;
21804;SDS011;11064;47.102;15.452;2022-11-15T14:07:58;55.15;;;29.70;;
21804;SDS011;11064;47.102;15.452;2022-11-15T14:10:44;57.20;;;29.65;;
21804;SDS011;11064;47.102;15.452;2022-11-15T14:15:53;54.28;;;29.90;;
21804;SDS011;11064;47.102;15.452;2022-11-15T14:21:14;53.05;;;29.77;;
21804;SDS011;11064;47.102;15.452;2022-11-15T14:23:41;51.28;;;27.88;;
21804;SDS011;11064;47.102;15.452;2022-11-15T14:26:11;55.03;;;29.60;;
21804;SDS011;11064;47.102;15.452;2022-11-15T14:28:52;55.90;;;28.40;;
21804;SDS011;11064;47.102;15.452;2022-11-15T14:31:18;57.22;;;29.55;;
21804;SDS011;11064;47.102;15.452;2022-11-15T14:33:45;52.05;;;29.15;;
21804;SDS011;11064;47.102;15.452;2022-11-15T14:36:13;55.15;;;29.40;;
21804;SDS011;11064;47.102;15.452;2022-11-15T14:38:40;53.72;;;29.35;;
21804;SDS011;11064;47.102;15.452;2022-11-15T14:41:16;52.38;;;28.55;;
21804;SDS011;11064;47.102;15.452;2022-11-15T14:43:47;53.65;;;27.85;;
21804;SDS011;11064;47.102;15.452;2022-11-15T14:46:14;49.58;;;27.20;;
21804;SDS011;11064;47.102;15.452;2022-11-15T14:48:40;47.83;;;26.90;;
21804;SDS011;11064;47.102;15.452;2022-11-15T14:51:09;50.28;;;27.70;;
21804;SDS011;11064;47.102;15.452;2022-11-15T14:53:38;49.83;;;26.77;;
21804;SDS011;11064;47.102;15.452;2022-11-15T14:56:05;48.80;;;27.15;;
21804;SDS011;11064;47.102;15.452;2022-11-15T14:58:30;49.03;;;26.98;;
21804;SDS011;11064;47.102;15.452;2022-11-15T15:00:56;47.83;;;26.52;;
21804;SDS011;11064;47.102;15.452;2022-11-15T15:03:22;56.38;;;28.50;;
21804;SDS011;11064;47.102;15.452;2022-11-15T15:05:47;52.35;;;28.70;;
21804;SDS011;11064;47.102;15.452;2022-11-15T15:08:13;54.20;;;28.40;;
21804;SDS011;11064;47.102;15.452;2022-11-15T15:10:41;54.25;;;28.65;;
21804;SDS011;11064;47.102;15.452;2022-11-15T15:13:16;55.35;;;29.10;;
21804;SDS011;11064;47.102;15.452;2022-11-15T15:15:44;56.22;;;29.65;;
21804;SDS011;11064;47.102;15.452;2022-11-15T15:18:11;51.13;;;28.58;;
21804;SDS011;11064;47.102;15.452;2022-11-15T15:20:37;57.30;;;29.17;;
21804;SDS011;11064;47.102;15.452;2022-11-15T15:23:05;53.63;;;28.60;;
21804;SDS011;11064;47.102;15.452;2022-11-15T15:25:39;55.40;;;28.73;;
21804;SDS011;11064;47.102;15.452;2022-11-15T15:28:07;54.30;;;28.48;;
21804;SDS011;11064;47.102;15.452;2022-11-15T15:30:32;53.75;;;28.67;;
21804;SDS011;11064;47.102;15.452;2022-11-15T15:32:58;55.80;;;29.40;;
21804;SDS011;11064;47.102;15.452;2022-11-15T15:35:24;53.00;;;28.77;;
21804;SDS011;11064;47.102;15.452;2022-11-15T15:37:54;55.58;;;29.20;;
21804;SDS011;11064;47.102;15.452;2022-11-15T15:40:21;53.35;;;29.63;;
21804;SDS011;11064;47.102;15.452;2022-11-15T15:42:48;53.45;;;28.67;;
21804;SDS011;11064;47.102;15.452;2022-11-15T15:45:15;48.50;;;27.75;;
21804;SDS011;11064;47.102;15.452;2022-11-15T15:47:41;49.95;;;27.55;;
21804;SDS011;11064;47.102;15.452;2022-11-15T15:52:41;58.05;;;30.00;;
21804;SDS011;11064;47.102;15.452;2022-11-15T15:55:07;57.33;;;28.98;;
21804;SDS011;11064;47.102;15.452;2022-11-15T15:57:33;55.20;;;30.13;;
21804;SDS011;11064;47.102;15.452;2022-11-15T15:59:59;59.75;;;31.38;;
21804;SDS011;11064;47.102;15.452;2022-11-15T16:02:25;60.10;;;31.27;;
21804;SDS011;11064;47.102;15.452;2022-11-15T16:04:50;58.88;;;31.00;;
21804;SDS011;11064;47.102;15.452;2022-11-15T16:07:17;62.47;;;30.60;;
21804;SDS011;11064;47.102;15.452;2022-11-15T16:09:48;61.30;;;32.00;;
21804;SDS011;11064;47.102;15.452;2022-11-15T16:12:27;59.55;;;30.63;;
21804;SDS011;11064;47.102;15.452;2022-11-15T16:14:55;52.80;;;27.88;;
21804;SDS011;11064;47.102;15.452;2022-11-15T16:17:21;53.78;;;29.27;;
21804;SDS011;11064;47.102;15.452;2022-11-15T16:19:53;56.85;;;30.00;;
21804;SDS011;11064;47.102;15.452;2022-11-15T16:22:19;57.75;;;29.52;;
21804;SDS011;11064;47.102;15.452;2022-11-15T16:24:45;55.78;;;30.17;;
21804;SDS011;11064;47.102;15.452;2022-11-15T16:27:15;55.40;;;30.38;;
21804;SDS011;11064;47.102;15.452;2022-11-15T16:29:42;57.35;;;30.33;;
21804;SDS011;11064;47.102;15.452;2022-11-15T16:32:09;52.65;;;29.30;;
21804;SDS011;11064;47.102;15.452;2022-11-15T16:34:35;55.25;;;28.50;;
21804;SDS011;11064;47.102;15.452;2022-11-15T16:37:01;54.97;;;29.70;;
21804;SDS011;11064;47.102;15.452;2022-11-15T16:39:27;55.05;;;29.52;;
21804;SDS011;11064;47.102;15.452;2022-11-15T16:41:55;57.38;;;29.75;;
21804;SDS011;11064;47.102;15.452;2022-11-15T16:44:25;54.88;;;29.95;;
21804;SDS011;11064;47.102;15.452;2022-11-15T16:46:51;63.40;;;30.85;;
21804;SDS011;11064;47.102;15.452;2022-11-15T16:49:18;57.35;;;29.33;;
21804;SDS011;11064;47.102;15.452;2022-11-15T16:51:45;55.22;;;29.02;;
21804;SDS011;11064;47.102;15.452;2022-11-15T16:54:12;53.17;;;28.98;;
21804;SDS011;11064;47.102;15.452;2022-11-15T16:56:38;54.40;;;27.70;;
21804;SDS011;11064;47.102;15.452;2022-11-15T16:59:05;51.67;;;27.85;;
21804;SDS011;11064;47.102;15.452;2022-11-15T17:01:35;48.45;;;27.33;;
21804;SDS011;11064;47.102;15.452;2022-11-15T17:04:14;52.53;;;28.02;;
21804;SDS011;11064;47.102;15.452;2022-11-15T17:06:42;51.80;;;28.75;;
21804;SDS011;11064;47.102;15.452;2022-11-15T17:09:10;56.75;;;29.55;;
21804;SDS011;11064;47.102;15.452;2022-11-15T17:11:37;57.20;;;29.50;;
21804;SDS011;11064;47.102;15.452;2022-11-15T17:14:05;53.22;;;28.65;;
21804;SDS011;11064;47.102;15.452;2022-11-15T17:16:31;55.05;;;28.50;;
21804;SDS011;11064;47.102;15.452;2022-11-15T17:18:58;52.58;;;28.58;;
21804;SDS011;11064;47.102;15.452;2022-11-15T17:21:24;52.75;;;28.85;;
21804;SDS011;11064;47.102;15.452;2022-11-15T17:23:52;51.75;;;28.17;;
21804;SDS011;11064;47.102;15.452;2022-11-15T17:26:18;54.03;;;29.27;;
21804;SDS011;11064;47.102;15.452;2022-11-15T17:28:45;61.35;;;29.65;;
21804;SDS011;11064;47.102;15.452;2022-11-15T17:31:11;52.28;;;28.73;;
21804;SDS011;11064;47.102;15.452;2022-11-15T17:33:38;57.33;;;30.48;;
21804;SDS011;11064;47.102;15.452;2022-11-15T17:36:06;56.17;;;30.60;;
21804;SDS011;11064;47.102;15.452;2022-11-15T17:38:35;52.95;;;28.73;;
21804;SDS011;11064;47.102;15.452;2022-11-15T17:43:28;51.42;;;28.10;;
21804;SDS011;11064;47.102;15.452;2022-11-15T17:45:55;53.53;;;27.98;;
21804;SDS011;11064;47.102;15.452;2022-11-15T17:48:21;51.42;;;27.40;;
21804;SDS011;11064;47.102;15.452;2022-11-15T17:50:57;52.08;;;27.08;;
21804;SDS011;11064;47.102;15.452;2022-11-15T17:53:24;50.35;;;28.25;;
21804;SDS011;11064;47.102;15.452;2022-11-15T17:55:51;50.50;;;27.60;;
21804;SDS011;11064;47.102;15.452;2022-11-15T17:58:18;51.10;;;27.95;;
21804;SDS011;11064;47.102;15.452;2022-11-15T18:00:44;51.00;;;26.98;;
21804;SDS011;11064;47.102;15.452;2022-11-15T18:03:11;47.17;;;26.92;;
21804;SDS011;11064;47.102;15.452;2022-11-15T18:05:38;53.08;;;28.00;;
21804;SDS011;11064;47.102;15.452;2022-11-15T18:08:08;50.25;;;27.83;;
21804;SDS011;11064;47.102;15.452;2022-11-15T18:10:35;50.25;;;28.17;;
21804;SDS011;11064;47.102;15.452;2022-11-15T18:13:01;53.13;;;27.88;;
21804;SDS011;11064;47.102;15.452;2022-11-15T18:15:27;55.83;;;27.85;;
21804;SDS011;11064;47.102;15.452;2022-11-15T18:17:53;50.05;;;27.50;;
21804;SDS011;11064;47.102;15.452;2022-11-15T18:20:19;52.13;;;27.67;;
21804;SDS011;11064;47.102;15.452;2022-11-15T18:22:45;53.35;;;27.98;;
21804;SDS011;11064;47.102;15.452;2022-11-15T18:25:11;55.13;;;28.73;;
21804;SDS011;11064;47.102;15.452;2022-11-15T18:27:40;49.08;;;27.05;;
21804;SDS011;11064;47.102;15.452;2022-11-15T18:30:06;52.63;;;28.40;;
21804;SDS011;11064;47.102;15.452;2022-11-15T18:32:32;51.33;;;27.10;;
21804;SDS011;11064;47.102;15.452;2022-11-15T18:34:58;51.88;;;27.75;;
21804;SDS011;11064;47.102;15.452;2022-11-15T18:37:24;49.58;;;27.17;;
21804;SDS011;11064;47.102;15.452;2022-11-15T18:39:49;49.67;;;26.95;;
21804;SDS011;11064;47.102;15.452;2022-11-15T18:42:15;53.13;;;28.55;;
21804;SDS011;11064;47.102;15.452;2022-11-15T18:44:41;53.30;;;29.02;;
21804;SDS011;11064;47.102;15.452;2022-11-15T18:47:07;52.13;;;28.75;;
21804;SDS011;11064;47.102;15.452;2022-11-15T18:49:33;50.45;;;28.10;;
21804;SDS011;11064;47.102;15.452;2022-11-15T18:51:58;54.35;;;28.52;;
21804;SDS011;11064;47.102;15.452;2022-11-15T18:54:24;51.22;;;27.73;;
21804;SDS011;11064;47.102;15.452;2022-11-15T18:56:50;47.78;;;27.13;;
21804;SDS011;11064;47.102;15.452;2022-11-15T18:59:15;51.00;;;27.48;;
21804;SDS011;11064;47.102;15.452;2022-11-15T19:01:42;51.80;;;27.30;;
21804;SDS011;11064;47.102;15.452;2022-11-15T19:04:13;53.55;;;28.38;;
21804;SDS011;11064;47.102;15.452;2022-11-15T19:06:42;50.10;;;27.43;;
21804;SDS011;11064;47.102;15.452;2022-11-15T19:09:11;56.85;;;28.70;;
21804;SDS011;11064;47.102;15.452;2022-11-15T19:11:40;52.20;;;29.05;;
21804;SDS011;11064;47.102;15.452;2022-11-15T19:14:10;53.08;;;29.67;;
21804;SDS011;11064;47.102;15.452;2022-11-15T19:16:38;58.38;;;31.67;;
21804;SDS011;11064;47.102;15.452;2022-11-15T19:19:17;57.83;;;31.02;;
21804;SDS011;11064;47.102;15.452;2022-11-15T19:21:44;53.60;;;30.30;;
21804;SDS011;11064;47.102;15.452;2022-11-15T19:24:10;57.00;;;30.55;;
21804;SDS011;11064;47.102;15.452;2022-11-15T19:26:37;54.22;;;28.45;;
21804;SDS011;11064;47.102;15.452;2022-11-15T19:29:03;54.17;;;28.42;;
21804;SDS011;11064;47.102;15.452;2022-11-15T19:31:31;55.90;;;28.55;;
21804;SDS011;11064;47.102;15.452;2022-11-15T19:33:57;57.40;;;29.77;;
21804;SDS011;11064;47.102;15.452;2022-11-15T19:36:28;54.88;;;28.45;;
21804;SDS011;11064;47.102;15.452;2022-11-15T19:38:59;51.83;;;27.90;;
21804;SDS011;11064;47.102;15.452;2022-11-15T19:41:29;50.45;;;28.52;;
21804;SDS011;11064;47.102;15.452;2022-11-15T19:43:55;55.33;;;28.90;;
21804;SDS011;11064;47.102;15.452;2022-11-15T19:46:21;52.42;;;29.67;;
21804;SDS011;11064;47.102;15.452;2022-11-15T19:48:48;54.90;;;29.27;;
21804;SDS011;11064;47.102;15.452;2022-11-15T19:51:16;54.92;;;29.02;;
21804;SDS011;11064;47.102;15.452;2022-11-15T19:53:46;54.08;;;29.63;;
21804;SDS011;11064;47.102;15.452;2022-11-15T19:56:13;54.55;;;28.13;;
21804;SDS011;11064;47.102;15.452;2022-11-15T19:58:40;52.33;;;29.88;;
21804;SDS011;11064;47.102;15.452;2022-11-15T20:01:08;52.22;;;28.20;;
21804;SDS011;11064;47.102;15.452;2022-11-15T20:03:45;50.72;;;28.23;;
21804;SDS011;11064;47.102;15.452;2022-11-15T20:06:18;54.65;;;28.83;;
21804;SDS011;11064;47.102;15.452;2022-11-15T20:08:46;54.78;;;27.33;;
21804;SDS011;11064;47.102;15.452;2022-11-15T20:11:12;55.08;;;28.08;;
21804;SDS011;11064;47.102;15.452;2022-11-15T20:13:39;51.20;;;26.63;;
21804;SDS011;11064;47.102;15.452;2022-11-15T20:16:06;54.95;;;28.77;;
21804;SDS011;11064;47.102;15.452;2022-11-15T20:18:33;51.35;;;26.73;;
21804;SDS011;11064;47.102;15.452;2022-11-15T20:20:59;49.50;;;26.35;;
21804;SDS011;11064;47.102;15.452;2022-11-15T20:23:25;45.53;;;25.20;;
21804;SDS011;11064;47.102;15.452;2022-11-15T20:25:51;48.25;;;26.35;;
21804;SDS011;11064;47.102;15.452;2022-11-15T20:28:24;52.10;;;26.45;;
21804;SDS011;11064;47.102;15.452;2022-11-15T20:30:52;47.85;;;25.70;;
21804;SDS011;11064;47.102;15.452;2022-11-15T20:33:23;48.78;;;25.02;;
21804;SDS011;11064;47.102;15.452;2022-11-15T20:35:50;49.70;;;26.02;;
21804;SDS011;11064;47.102;15.452;2022-11-15T20:38:16;49.97;;;26.33;;
21804;SDS011;11064;47.102;15.452;2022-11-15T20:40:44;48.70;;;26.58;;
21804;SDS011;11064;47.102;15.452;2022-11-15T20:43:12;49.65;;;25.98;;
21804;SDS011;11064;47.102;15.452;2022-11-15T20:45:41;44.40;;;24.85;;
21804;SDS011;11064;47.102;15.452;2022-11-15T20:48:10;46.55;;;25.73;;
21804;SDS011;11064;47.102;15.452;2022-11-15T20:50:39;44.35;;;25.40;;
21804;SDS011;11064;47.102;15.452;2022-11-15T20:53:06;48.90;;;24.55;;
21804;SDS011;11064;47.102;15.452;2022-11-15T20:55:32;45.22;;;26.10;;
21804;SDS011;11064;47.102;15.452;2022-11-15T20:58:03;49.80;;;27.85;;
21804;SDS011;11064;47.102;15.452;2022-11-15T21:00:28;48.78;;;26.73;;
21804;SDS011;11064;47.102;15.452;2022-11-15T21:02:54;49.97;;;25.52;;